Aviation Digital Data Service (ADDS)

Output produced by METARs form (2052 UTC 24 June 2018)
found at http://www.aviationweather.gov/adds/metars/
 
LYBE 242030Z 00000KT CAVOK 16/10 Q1018 NOSIG
TAF LYBE 241700Z 2418/2518 35006KT CAVOK TX23/2513Z TN12/2503Z
       
LYNI 242030Z 08004KT 9999 FEW040 15/08 Q1018 NOSIG
TAF LYNI 241700Z 2418/2518 02006KT 9999 SCT040 TX24/2514Z TN07/2503Z 
     TEMPO 2513/2516 VRB20KT 5000 TSRA SCT028CB SCR033
       
LYVR 242030Z 36001KT CAVOK 12/11 Q1018 NOSIG
TAF LYVR 241700Z 2418/2518 07005KT CAVOK TX23/2513Z TN09/2503Z
       
LYKV 242030Z VRB02KT CAVOK 13/10 Q1018 NOSIG
TAF LYKV 241700Z 2418/2518 VRB02KT CAVOK TX22/2514Z TN08/2503Z
       
LYBT 242030Z 00000KT CAVOK 14/11 Q1018 NOSIG
TAF LYBT 241700Z 2418/2518 02005KT CAVOK TX23/2513Z TN09/2503Z
       
LYUZ 242030Z AUTO VRB01KT CAVOK 10/09 Q1019
TAF LYUZ 241700Z 2418/2518 07005KT 9999 SCT020 TX16/2513Z TN06/2503Z